Time;durP1;ratioP1;P1;durP2;ratioP2;P2;SDS_P1;SDS_P2;PMS_P1;PMS_P2;Temp;Humidity;BMP_temperature;BMP_pressure;BME280_temperature;BME280_humidity;BME280_pressure;Samples;Min_cycle;Max_cycle;Signal;HPM_P1;HPM_P2
2022/05/19 00:00:35;;;;;;;21.63;11.75;;;10.80;52.60;;;;;;10362422;28;20495;-80
2022/05/19 00:06:00;;;;;;;29.80;12.60;;;10.70;99.90;;;;;;10334335;28;20201;-80
2022/05/19 00:11:28;;;;;;;20.23;11.55;;;10.70;1.00;;;;;;10347119;28;20233;-80
2022/05/19 00:16:50;;;;;;;31.00;13.60;;;10.60;1.00;;;;;;10333732;28;20403;-79
2022/05/19 00:22:12;;;;;;;21.75;11.68;;;10.60;99.90;;;;;;10360787;28;20502;-79
2022/05/19 00:27:33;;;;;;;26.37;11.13;;;10.50;1.00;;;;;;10360327;28;20205;-79
2022/05/19 00:32:55;;;;;;;21.90;10.47;;;10.40;1.00;;;;;;10360474;28;20225;-80
2022/05/19 00:38:16;;;;;;;18.92;10.05;;;10.40;1.00;;;;;;10360818;28;20191;-80
2022/05/19 00:43:40;;;;;;;19.63;10.53;;;10.30;99.90;;;;;;10359986;28;20200;-80
2022/05/19 00:49:11;;;;;;;19.10;10.45;;;10.30;99.90;;;;;;10359767;28;20276;-80
2022/05/19 00:54:39;;;;;;;23.50;10.40;;;10.30;1.00;;;;;;10345683;28;20208;-80
2022/05/19 01:00:08;;;;;;;16.25;8.63;;;10.20;99.90;;;;;;10358877;28;20439;-80
2022/05/19 01:05:49;;;;;;;23.05;10.43;;;10.10;1.00;;;;;;10359218;28;20201;-81
2022/05/19 01:11:11;;;;;;;20.43;11.53;;;;;;;;;;10331391;28;20606;-79
2022/05/19 01:16:33;;;;;;;26.60;10.60;;;;;;;;;;10331649;28;20512;-80
2022/05/19 01:22:00;;;;;;;16.73;9.10;;;10.00;1.00;;;;;;10359766;28;20203;-79
2022/05/19 01:27:22;;;;;;;19.47;9.80;;;9.90;1.00;;;;;;10344571;28;20228;-79
2022/05/19 01:32:43;;;;;;;17.87;8.80;;;10.00;1.00;;;;;;10344620;28;20245;-79
2022/05/19 01:38:15;;;;;;;17.73;9.13;;;10.10;1.00;;;;;;10344412;28;20263;-79
2022/05/19 01:44:14;;;;;;;16.67;8.47;;;10.00;1.00;;;;;;10357956;28;20200;-80
2022/05/19 01:49:42;;;;;;;17.30;8.13;;;9.80;99.90;;;;;;10357584;28;20298;-79
2022/05/19 01:55:16;;;;;;;19.10;7.37;;;9.70;99.90;;;;;;10344086;28;20205;-79
2022/05/19 02:00:38;;;;;;;13.90;7.23;;;9.60;51.40;;;;;;10357178;28;20209;-80
2022/05/19 02:06:27;;;;;;;12.13;6.70;;;9.60;1.00;;;;;;10338865;28;20350;-80
2022/05/19 02:11:54;;;;;;;11.73;6.50;;;9.60;1.00;;;;;;10342789;28;20256;-81
2022/05/19 02:17:19;;;;;;;14.07;6.53;;;9.60;44.90;;;;;;10343175;28;20415;-79
2022/05/19 02:22:43;;;;;;;15.27;7.67;;;9.50;1.00;;;;;;10342418;28;20235;-79
2022/05/19 02:28:33;;;;;;;15.47;6.67;;;9.60;99.90;;;;;;10342259;28;20199;-80
2022/05/19 02:33:55;;;;;;;12.80;7.20;;;9.60;1.00;;;;;;10355528;28;20257;-80
2022/05/19 02:39:16;;;;;;;16.17;7.07;;;9.60;1.00;;;;;;10355857;28;20204;-79
2022/05/19 02:44:37;;;;;;;15.90;7.17;;;9.50;99.90;;;;;;10355466;28;20194;-79
2022/05/19 02:50:00;;;;;;;11.97;6.80;;;9.30;34.40;;;;;;10354923;28;20234;-79
2022/05/19 02:55:22;;;;;;;14.00;6.00;;;9.40;99.90;;;;;;10355143;28;20205;-80
2022/05/19 03:00:49;;;;;;;11.60;6.67;;;9.40;1.00;;;;;;10354698;28;20217;-79
2022/05/19 03:06:11;;;;;;;17.77;7.97;;;9.40;1.00;;;;;;10337804;28;20205;-79
2022/05/19 03:11:33;;;;;;;16.17;7.60;;;9.40;1.00;;;;;;10354776;28;20283;-80
2022/05/19 03:16:57;;;;;;;13.87;8.10;;;9.40;1.00;;;;;;10340774;28;20197;-79
2022/05/19 03:22:19;;;;;;;18.30;6.97;;;9.50;1.00;;;;;;10355508;28;20201;-79
2022/05/19 03:27:41;;;;;;;16.13;7.17;;;9.50;99.90;;;;;;10341005;28;20192;-79
2022/05/19 03:33:03;;;;;;;13.47;7.53;;;9.60;99.90;;;;;;10339895;28;20248;-79
2022/05/19 03:38:26;;;;;;;14.57;6.37;;;9.60;99.90;;;;;;10354069;28;20304;-80
2022/05/19 03:43:48;;;;;;;12.73;7.43;;;9.70;99.90;;;;;;10340035;28;20413;-79
2022/05/19 03:49:11;;;;;;;12.93;6.83;;;9.90;99.90;;;;;;10353829;28;20225;-79
2022/05/19 03:54:33;;;;;;;16.57;7.97;;;10.10;1.00;;;;;;10354016;28;20240;-79
2022/05/19 03:59:55;;;;;;;15.03;6.03;;;10.20;1.00;;;;;;10326201;28;20395;-80
2022/05/19 04:05:16;;;;;;;18.42;11.13;;;10.40;1.00;;;;;;10353245;28;20272;-79
2022/05/19 04:10:42;;;;;;;20.90;12.37;;;10.50;77.10;;;;;;10353185;28;20229;-79
2022/05/19 04:16:03;;;;;;;20.27;10.50;;;10.60;1.00;;;;;;10343476;28;20228;-78
2022/05/19 04:21:27;;;;;;;15.10;7.30;;;10.60;1.00;;;;;;10334033;28;20204;-80
2022/05/19 04:26:49;;;;;;;8.87;5.00;;;10.60;99.90;;;;;;10361826;28;20267;-80
2022/05/19 04:32:10;;;;;;;7.27;4.53;;;10.70;99.90;;;;;;10306038;28;20233;-79
2022/05/19 04:37:31;;;;;;;10.98;3.97;;;10.90;1.00;;;;;;10319923;28;20229;-80
2022/05/19 04:42:55;;;;;;;11.13;4.55;;;11.00;99.90;;;;;;10319697;28;20237;-79
2022/05/19 04:48:17;;;;;;;7.23;3.90;;;11.10;99.90;;;;;;10328327;28;20230;-80
2022/05/19 04:53:38;;;;;;;8.38;4.00;;;11.10;99.90;;;;;;10332321;28;20202;-80
2022/05/19 04:59:00;;;;;;;9.97;3.97;;;11.30;1.00;;;;;;10345270;28;20205;-80
2022/05/19 05:04:21;;;;;;;8.18;3.83;;;11.40;1.00;;;;;;10331840;28;20216;-80
2022/05/19 05:09:42;;;;;;;5.63;3.85;;;11.60;1.00;;;;;;10345275;28;20544;-80
2022/05/19 05:15:05;;;;;;;16.60;5.43;;;11.80;99.90;;;;;;10358717;28;20241;-81
2022/05/19 05:20:26;;;;;;;12.82;4.80;;;11.90;1.00;;;;;;10358992;28;20194;-83
2022/05/19 05:25:47;;;;;;;7.28;3.90;;;12.10;99.90;;;;;;10330533;28;20201;-83
2022/05/19 05:31:09;;;;;;;9.77;3.78;;;12.50;1.00;;;;;;10319993;28;20275;-83
2022/05/19 05:36:30;;;;;;;44.17;21.50;;;12.80;1.00;;;;;;10303739;28;20250;-83
2022/05/19 05:41:51;;;;;;;30.50;17.35;;;13.20;1.00;;;;;;10317269;28;20244;-83
2022/05/19 05:47:13;;;;;;;17.42;8.73;;;13.60;1.00;;;;;;10318036;28;20200;-83
2022/05/19 05:52:34;;;;;;;26.77;11.43;;;13.90;99.90;;;;;;10343875;28;20234;-83
2022/05/19 05:57:56;;;;;;;18.55;7.68;;;14.30;1.00;;;;;;10343421;28;20514;-83
2022/05/19 06:03:16;;;;;;;10.02;4.38;;;14.70;1.00;;;;;;10343010;28;20186;-83
2022/05/19 06:08:38;;;;;;;22.38;6.10;;;15.00;1.00;;;;;;10303158;28;20209;-83
2022/05/19 06:13:59;;;;;;;30.92;10.20;;;15.40;1.00;;;;;;10304828;28;20216;-84
2022/05/19 06:19:21;;;;;;;17.35;8.27;;;15.80;99.90;;;;;;10302445;28;20206;-83
2022/05/19 06:24:42;;;;;;;11.20;5.43;;;16.30;99.90;;;;;;10304888;28;20194;-83
2022/05/19 06:30:07;;;;;;;6.30;2.67;;;17.00;99.90;;;;;;10337869;28;20239;-83
2022/05/19 06:35:30;;;;;;;6.53;2.75;;;17.70;1.00;;;;;;10355989;28;20232;-83
2022/05/19 06:42:00;;;;;;;10.45;3.58;;;18.40;1.00;;;;;;10341367;28;20232;-83
2022/05/19 06:46:33;;;;;;;16.45;4.10;;;19.20;1.00;;;;;;10341772;28;20485;-84
2022/05/19 06:51:55;;;;;;;6.82;2.95;;;19.80;1.00;;;;;;10342447;28;20228;-83
2022/05/19 06:57:16;;;;;;;7.75;2.60;;;20.20;1.00;;;;;;10341025;28;20200;-84
2022/05/19 07:02:43;;;;;;;8.27;3.35;;;20.70;1.00;;;;;;10341006;28;20217;-83
2022/05/19 07:08:06;;;;;;;23.40;9.73;;;21.30;1.00;;;;;;10341199;28;20277;-83
2022/05/19 07:13:27;;;;;;;10.25;2.28;;;21.70;1.00;;;;;;10341054;28;20240;-83
2022/05/19 07:18:49;;;;;;;17.98;7.32;;;22.10;99.90;;;;;;10327586;28;20547;-83
2022/05/19 07:24:18;;;;;;;15.02;2.70;;;22.00;99.90;;;;;;10317950;28;20434;-88
2022/05/19 07:29:41;;;;;;;9.82;3.95;;;22.10;99.90;;;;;;10337722;28;20452;-80
2022/05/19 07:35:05;;;;;;;9.60;3.30;;;22.20;99.90;;;;;;10332207;28;20468;-80
2022/05/19 07:40:27;;;;;;;7.88;4.38;;;22.40;99.90;;;;;;10331516;28;20588;-81
2022/05/19 07:45:48;;;;;;;6.10;2.80;;;22.70;99.90;;;;;;10342710;28;20216;-83
2022/05/19 07:51:09;;;;;;;12.27;7.22;;;22.80;99.90;;;;;;10350246;28;20210;-83
2022/05/19 07:56:31;;;;;;;6.40;3.33;;;23.20;99.90;;;;;;10340748;28;20201;-82
2022/05/19 08:01:53;;;;;;;9.10;2.05;;;23.40;99.90;;;;;;10328597;28;20232;-81
2022/05/19 08:07:14;;;;;;;6.05;2.83;;;23.80;99.90;;;;;;10329571;28;20407;-81
2022/05/19 08:18:18;;;;;;;20.58;3.08;;;24.50;99.90;;;;;;10355942;28;20261;-81
2022/05/19 08:23:46;;;;;;;7.93;2.00;;;24.70;99.90;;;;;;10335848;28;20279;-81
2022/05/19 08:29:07;;;;;;;40.85;12.32;;;25.20;99.90;;;;;;10340645;28;20551;-81
2022/05/19 08:34:48;;;;;;;10.55;3.53;;;25.60;99.90;;;;;;10354224;28;20230;-82
2022/05/19 08:40:14;;;;;;;27.58;5.47;;;25.90;99.90;;;;;;10327355;28;20217;-82
2022/05/19 08:45:47;;;;;;;8.13;1.88;;;26.00;99.90;;;;;;10333255;28;20489;-80
2022/05/19 08:51:11;;;;;;;16.92;2.47;;;26.30;84.10;;;;;;10355262;28;20233;-81
2022/05/19 08:56:39;;;;;;;7.05;1.88;;;26.60;69.50;;;;;;10354142;28;20193;-81
2022/05/19 09:02:01;;;;;;;3.58;1.70;;;26.90;74.20;;;;;;10335754;28;20203;-82
2022/05/19 09:13:35;;;;;;;3.10;2.00;;;27.00;43.10;;;;;;10340114;28;20237;-79
2022/05/19 09:19:09;;;;;;;3.83;1.73;;;27.60;63.80;;;;;;10335765;28;20256;-81
2022/05/19 09:24:30;;;;;;;1.73;1.45;;;27.50;51.10;;;;;;10346254;28;20286;-81
2022/05/19 09:29:55;;;;;;;6.85;1.70;;;27.80;14.80;;;;;;10329881;28;20324;-83
2022/05/19 09:35:36;;;;;;;2.38;1.63;;;28.10;7.30;;;;;;10330956;28;20234;-83
2022/05/19 09:41:06;;;;;;;6.03;1.77;;;28.20;1.00;;;;;;10322112;28;20290;-86
2022/05/19 09:46:49;;;;;;;4.68;2.47;;;28.40;1.00;;;;;;10323946;28;20194;-84
2022/05/19 09:52:18;;;;;;;10.15;2.17;;;28.80;1.00;;;;;;10320697;28;20229;-84
2022/05/19 09:57:51;;;;;;;8.32;2.22;;;29.00;1.00;;;;;;10340701;28;20206;-82
2022/05/19 10:03:22;;;;;;;6.32;2.03;;;29.20;1.00;;;;;;10300844;28;20394;-82
2022/05/19 10:08:45;;;;;;;3.20;1.80;;;29.40;1.00;;;;;;10335061;28;20426;-82
2022/05/19 10:14:14;;;;;;;10.43;2.28;;;29.50;1.00;;;;;;10319668;28;20205;-88
2022/05/19 10:19:50;;;;;;;3.55;2.42;;;29.60;1.00;;;;;;10346435;28;20225;-81
2022/05/19 10:25:27;;;;;;;45.63;4.13;;;29.60;1.00;;;;;;10346705;28;20221;-84
2022/05/19 10:31:07;;;;;;;2.33;1.80;;;29.60;1.00;;;;;;10307775;28;20226;-82
2022/05/19 10:37:18;;;;;;;6.22;2.20;;;29.60;1.00;;;;;;10341451;28;20241;-81
2022/05/19 10:42:46;;;;;;;10.00;3.33;;;;;;;;;;10293634;28;20301;-90
2022/05/19 10:48:22;;;;;;;12.45;8.15;;;30.10;1.00;;;;;;10313673;28;20235;-83
2022/05/19 10:54:17;;;;;;;8.88;2.88;;;30.30;1.00;;;;;;10305393;28;20242;-84
2022/05/19 10:59:54;;;;;;;6.93;1.70;;;30.30;1.00;;;;;;10311587;28;20571;-82
2022/05/19 11:05:28;;;;;;;3.40;1.45;;;30.10;1.00;;;;;;10309383;28;20221;-81
2022/05/19 11:11:30;;;;;;;10.68;6.78;;;29.70;1.00;;;;;;10297244;28;20321;-84
2022/05/19 11:17:04;;;;;;;4.65;2.00;;;29.90;1.00;;;;;;10340497;28;20424;-81
2022/05/19 11:23:18;;;;;;;4.00;1.70;;;30.00;1.00;;;;;;10334409;28;20214;-81
2022/05/19 11:29:31;;;;;;;4.85;1.85;;;29.80;1.00;;;;;;10339438;28;20206;-82
2022/05/19 11:34:56;;;;;;;2.42;1.92;;;29.70;1.00;;;;;;10330308;28;20733;-86
2022/05/19 11:40:24;;;;;;;6.20;2.55;;;29.50;1.00;;;;;;10341586;28;20218;-82
2022/05/19 11:45:52;;;;;;;4.60;2.25;;;29.70;1.00;;;;;;10311228;28;20443;-83
2022/05/19 11:57:07;;;;;;;5.60;3.08;;;29.30;1.00;;;;;;10343657;28;20555;-81
2022/05/19 12:02:49;;;;;;;4.97;1.90;;;29.10;1.00;;;;;;10300735;28;20276;-81
2022/05/19 12:08:28;;;;;;;4.78;2.10;;;29.20;1.00;;;;;;10319142;28;20206;-82
2022/05/19 12:14:05;;;;;;;10.30;2.42;;;29.20;1.00;;;;;;10319118;28;20560;-81
2022/05/19 12:19:33;;;;;;;24.63;11.15;;;29.50;1.00;;;;;;10332842;28;20197;-81
2022/05/19 12:25:13;;;;;;;8.80;3.03;;;29.70;1.00;;;;;;10343741;28;20406;-81
2022/05/19 12:36:38;;;;;;;5.97;1.77;;;30.00;1.00;;;;;;10383169;28;20233;-82
2022/05/19 12:42:12;;;;;;;20.65;11.38;;;29.70;1.00;;;;;;10378028;28;20458;-81
2022/05/19 12:47:34;;;;;;;7.50;4.32;;;29.60;1.00;;;;;;10376556;28;20248;-80
2022/05/19 12:53:13;;;;;;;6.72;3.17;;;29.60;1.00;;;;;;10386243;28;20263;-82
2022/05/19 12:58:39;;;;;;;3.67;2.50;;;29.30;1.00;;;;;;10373859;28;20292;-81
2022/05/19 13:04:35;;;;;;;4.00;2.10;;;29.50;1.00;;;;;;10368694;28;20229;-81
2022/05/19 13:10:14;;;;;;;7.07;2.55;;;29.40;1.00;;;;;;10358253;28;20217;-82
2022/05/19 13:22:34;;;;;;;12.68;2.17;;;29.40;1.00;;;;;;10312436;28;20206;-85
2022/05/19 13:34:05;;;;;;;3.67;2.97;;;29.30;1.00;;;;;;10328651;28;20256;-82
2022/05/19 13:39:27;;;;;;;9.60;3.63;;;29.20;1.00;;;;;;10313579;28;20210;-83
2022/05/19 13:44:53;;;;;;;5.95;2.83;;;29.30;1.00;;;;;;10336513;28;20213;-83
2022/05/19 13:50:22;;;;;;;7.72;1.73;;;29.20;1.00;;;;;;10345988;28;20488;-80
2022/05/19 13:55:44;;;;;;;7.88;2.20;;;28.90;1.00;;;;;;10379681;28;20209;-87
2022/05/19 14:01:16;;;;;;;3.00;1.50;;;28.70;1.00;;;;;;10386406;28;20218;-87
2022/05/19 14:06:38;;;;;;;2.22;1.73;;;28.40;1.00;;;;;;10366108;28;20216;-81
2022/05/19 14:12:32;;;;;;;7.63;1.95;;;28.30;1.00;;;;;;10356256;28;20283;-82
2022/05/19 14:18:01;;;;;;;2.65;1.98;;;28.00;1.00;;;;;;10349577;28;20214;-83
2022/05/19 14:23:33;;;;;;;3.55;2.05;;;28.00;1.00;;;;;;10371444;28;20213;-82
2022/05/19 14:28:57;;;;;;;9.90;2.58;;;27.80;1.00;;;;;;10353910;28;20204;-82
2022/05/19 14:34:39;;;;;;;10.00;2.80;;;27.80;1.00;;;;;;10362011;28;20248;-84
2022/05/19 14:46:00;;;;;;;8.60;1.92;;;27.50;1.00;;;;;;10379943;28;20224;-89
2022/05/19 14:51:30;;;;;;;4.75;2.15;;;27.40;1.00;;;;;;10379004;28;20224;-83
2022/05/19 14:56:58;;;;;;;3.33;1.75;;;27.40;1.00;;;;;;10364955;28;20220;-83
2022/05/19 15:02:20;;;;;;;2.95;1.67;;;27.30;1.00;;;;;;10349835;28;20201;-84
2022/05/19 15:07:48;;;;;;;6.80;2.60;;;27.10;1.00;;;;;;10364432;28;20225;-85
2022/05/19 15:13:11;;;;;;;5.15;3.55;;;27.00;1.00;;;;;;10381863;28;20300;-82
2022/05/19 15:18:34;;;;;;;7.60;2.05;;;26.80;1.00;;;;;;10381684;28;20391;-84
2022/05/19 15:23:55;;;;;;;2.60;1.38;;;26.50;1.00;;;;;;10393808;28;20190;-82
2022/05/19 15:29:16;;;;;;;5.28;1.73;;;26.50;1.00;;;;;;10395023;28;20193;-83
2022/05/19 15:34:38;;;;;;;7.25;3.03;;;26.40;1.00;;;;;;10379145;28;20256;-82
2022/05/19 15:40:00;;;;;;;4.75;2.20;;;26.40;1.00;;;;;;10380663;28;20199;-81
2022/05/19 15:45:21;;;;;;;4.78;2.08;;;26.30;1.00;;;;;;10395714;28;20503;-82
2022/05/19 15:50:45;;;;;;;4.55;2.33;;;26.10;1.00;;;;;;10366693;28;20251;-82
2022/05/19 15:56:06;;;;;;;11.13;2.30;;;26.00;1.00;;;;;;10375267;28;20217;-82
2022/05/19 16:01:27;;;;;;;6.28;2.03;;;25.90;1.00;;;;;;10356632;28;20195;-81
2022/05/19 16:06:48;;;;;;;4.70;1.83;;;25.90;1.00;;;;;;10379912;28;20220;-85
2022/05/19 16:12:11;;;;;;;62.40;52.75;;;25.90;1.00;;;;;;10354351;28;20221;-82
2022/05/19 16:17:37;;;;;;;19.30;10.88;;;25.70;1.00;;;;;;10373617;28;20204;-80
2022/05/19 16:22:59;;;;;;;13.38;6.63;;;25.60;1.00;;;;;;10387382;28;20204;-82
2022/05/19 16:28:22;;;;;;;8.07;3.53;;;25.60;1.00;;;;;;10401655;28;20198;-81
2022/05/19 16:33:46;;;;;;;11.32;4.00;;;25.60;1.00;;;;;;10386837;28;20229;-84
2022/05/19 16:39:09;;;;;;;8.30;4.18;;;25.40;1.00;;;;;;10401287;28;20200;-79
2022/05/19 16:44:31;;;;;;;14.02;4.88;;;25.30;1.00;;;;;;10387329;28;20420;-80
2022/05/19 16:49:52;;;;;;;60.85;25.90;;;25.10;1.00;;;;;;10400559;28;20514;-80
2022/05/19 17:00:56;;;;;;;24.65;12.38;;;24.80;1.00;;;;;;10373170;28;20276;-82
2022/05/19 17:06:18;;;;;;;33.92;18.42;;;24.80;1.00;;;;;;10401191;28;20243;-83
2022/05/19 17:11:39;;;;;;;17.27;10.27;;;24.70;1.00;;;;;;10400167;28;20407;-81
2022/05/19 17:17:00;;;;;;;32.15;13.00;;;24.60;1.00;;;;;;10399915;28;20196;-82
2022/05/19 17:22:21;;;;;;;18.95;9.48;;;24.60;1.00;;;;;;10399269;28;20196;-82
2022/05/19 17:27:44;;;;;;;18.52;7.68;;;24.50;1.00;;;;;;10400700;28;20369;-82
2022/05/19 17:33:07;;;;;;;11.60;6.50;;;24.50;1.00;;;;;;10371019;28;20268;-81
2022/05/19 17:38:28;;;;;;;15.73;8.35;;;24.40;1.00;;;;;;10385407;28;20197;-82
2022/05/19 17:43:49;;;;;;;23.48;12.73;;;24.30;1.00;;;;;;10384877;28;20201;-82
2022/05/19 17:49:11;;;;;;;22.90;13.15;;;24.20;1.00;;;;;;10399554;28;20197;-82
2022/05/19 17:54:34;;;;;;;30.48;14.35;;;24.00;1.00;;;;;;10398375;28;20216;-84
2022/05/19 17:59:57;;;;;;;16.92;8.63;;;23.90;1.00;;;;;;10393813;28;20228;-85
2022/05/19 18:05:19;;;;;;;10.88;7.40;;;23.70;1.00;;;;;;10397320;28;20208;-82
2022/05/19 18:10:41;;;;;;;21.95;9.88;;;23.60;1.00;;;;;;10397783;28;20267;-85
2022/05/19 18:21:43;;;;;;;93.90;39.72;;;23.40;1.00;;;;;;10397749;28;20185;-84
2022/05/19 18:27:06;;;;;;;61.75;27.08;;;23.30;1.00;;;;;;10383921;28;20232;-86
2022/05/19 18:32:27;;;;;;;31.27;15.75;;;23.20;1.00;;;;;;10396115;28;20272;-86
2022/05/19 18:37:49;;;;;;;18.35;9.50;;;23.10;1.00;;;;;;10332318;28;20193;-85
2022/05/19 18:48:51;;;;;;;12.75;6.45;;;22.70;1.00;;;;;;10355597;28;20488;-83
2022/05/19 18:54:13;;;;;;;6.57;4.30;;;22.60;1.00;;;;;;10379656;28;20225;-81
2022/05/19 18:59:35;;;;;;;6.25;4.30;;;22.50;1.00;;;;;;10401369;28;20197;-85
2022/05/19 19:04:56;;;;;;;5.78;4.15;;;22.40;1.00;;;;;;10381625;28;20393;-80
2022/05/19 19:10:21;;;;;;;4.47;3.70;;;22.20;1.00;;;;;;10396022;28;20189;-83
2022/05/19 19:15:42;;;;;;;9.15;4.50;;;22.00;1.00;;;;;;10396391;28;20549;-83
2022/05/19 19:21:05;;;;;;;10.55;7.63;;;21.90;1.00;;;;;;10368286;28;20205;-82
2022/05/19 19:26:27;;;;;;;16.30;9.88;;;21.80;1.00;;;;;;10395307;28;20453;-81
2022/05/19 19:31:48;;;;;;;12.10;7.65;;;21.60;1.00;;;;;;10381719;28;20225;-81
2022/05/19 19:37:10;;;;;;;11.77;8.13;;;21.50;1.00;;;;;;10381770;28;20354;-83
2022/05/19 19:42:32;;;;;;;10.85;7.18;;;21.40;1.00;;;;;;10367563;28;20207;-82
2022/05/19 19:47:53;;;;;;;9.15;6.40;;;21.30;1.00;;;;;;10386483;28;20276;-85
2022/05/19 19:53:15;;;;;;;9.05;5.90;;;21.20;1.00;;;;;;10389326;28;20222;-85
2022/05/19 19:58:38;;;;;;;8.95;5.50;;;21.20;1.00;;;;;;10388518;28;20246;-83
2022/05/19 20:04:01;;;;;;;5.72;4.93;;;21.10;1.00;;;;;;10388846;28;20197;-81
2022/05/19 20:09:24;;;;;;;9.57;5.63;;;21.00;1.00;;;;;;10390406;28;20220;-85
2022/05/19 20:14:48;;;;;;;9.18;5.70;;;20.90;1.00;;;;;;10401982;28;20228;-81
2022/05/19 20:20:14;;;;;;;11.13;5.47;;;20.90;1.00;;;;;;10374978;28;20239;-83
2022/05/19 20:25:36;;;;;;;9.05;6.20;;;20.80;1.00;;;;;;10388205;28;20202;-84
2022/05/19 20:30:58;;;;;;;7.20;5.65;;;20.70;1.00;;;;;;10388007;28;20292;-84
2022/05/19 20:36:19;;;;;;;9.32;5.75;;;20.70;1.00;;;;;;10387214;28;20397;-85
2022/05/19 20:41:40;;;;;;;9.48;5.80;;;20.50;1.00;;;;;;10401543;28;20268;-83
2022/05/19 20:47:03;;;;;;;7.68;4.78;;;20.50;1.00;;;;;;10381081;28;20200;-82
2022/05/19 20:52:24;;;;;;;8.07;5.40;;;20.50;1.00;;;;;;10387940;28;20225;-83
2022/05/19 20:57:46;;;;;;;6.30;4.65;;;20.40;1.00;;;;;;10380334;28;20212;-85
2022/05/19 21:03:07;;;;;;;5.65;3.97;;;20.30;1.00;;;;;;10373000;28;20397;-83
2022/05/19 21:08:28;;;;;;;6.70;4.78;;;20.30;1.00;;;;;;10400252;28;20491;-81
2022/05/19 21:13:49;;;;;;;6.35;4.60;;;20.20;1.00;;;;;;10372340;28;20221;-82
2022/05/19 21:19:16;;;;;;;8.13;4.25;;;20.20;1.00;;;;;;10401292;28;20193;-84
2022/05/19 21:30:18;;;;;;;8.05;4.13;;;20.10;1.00;;;;;;10399316;28;20216;-83
2022/05/19 21:35:40;;;;;;;4.93;3.53;;;20.00;1.00;;;;;;10385451;28;20539;-81
2022/05/19 21:41:09;;;;;;;7.88;4.03;;;20.00;1.00;;;;;;10398901;28;20213;-82
2022/05/19 21:46:31;;;;;;;4.63;3.30;;;19.90;1.00;;;;;;10383364;28;20197;-84
2022/05/19 21:57:54;;;;;;;5.50;2.97;;;19.70;1.00;;;;;;10397988;28;20671;-86
2022/05/19 22:03:22;;;;;;;7.88;3.80;;;19.60;1.00;;;;;;10384068;28;20200;-81
2022/05/19 22:08:45;;;;;;;6.10;4.00;;;19.50;1.00;;;;;;10345061;28;20202;-82
2022/05/19 22:14:07;;;;;;;6.55;4.15;;;19.30;1.00;;;;;;10355592;28;20231;-83
2022/05/19 22:19:29;;;;;;;11.88;6.18;;;19.20;20.10;;;;;;10383620;28;20197;-80
2022/05/19 22:24:52;;;;;;;8.65;5.45;;;19.10;39.60;;;;;;10352650;28;20194;-85
2022/05/19 22:30:16;;;;;;;7.00;5.38;;;19.10;94.70;;;;;;10372754;28;20256;-84
2022/05/19 22:35:37;;;;;;;8.85;5.75;;;19.10;99.90;;;;;;10379677;28;20241;-83
2022/05/19 22:40:58;;;;;;;12.25;6.55;;;19.00;99.90;;;;;;10383063;28;20563;-81
2022/05/19 22:46:19;;;;;;;13.10;7.88;;;18.90;99.90;;;;;;10372082;28;20206;-83
2022/05/19 22:51:41;;;;;;;10.38;6.78;;;18.80;99.90;;;;;;10360081;28;20732;-82
2022/05/19 22:57:04;;;;;;;9.57;6.28;;;18.60;99.90;;;;;;10368305;28;20489;-81
2022/05/19 23:02:26;;;;;;;10.38;6.43;;;18.40;1.00;;;;;;10368356;28;20390;-81
2022/05/19 23:07:48;;;;;;;9.00;5.80;;;18.40;1.00;;;;;;10382343;28;20201;-83
2022/05/19 23:13:09;;;;;;;7.60;5.32;;;18.20;1.00;;;;;;10395351;28;20224;-83
2022/05/19 23:18:30;;;;;;;7.53;5.60;;;18.10;79.50;;;;;;10395917;28;20189;-80
2022/05/19 23:23:52;;;;;;;9.98;6.55;;;18.00;1.00;;;;;;10381210;28;20496;-82
2022/05/19 23:29:13;;;;;;;13.98;8.35;;;17.90;99.90;;;;;;10396769;28;20217;-83
2022/05/19 23:34:34;;;;;;;12.15;6.90;;;17.80;1.00;;;;;;10381115;28;20249;-85
2022/05/19 23:39:55;;;;;;;10.85;6.55;;;17.70;1.00;;;;;;10395078;28;20232;-83
2022/05/19 23:45:17;;;;;;;12.07;6.90;;;17.60;1.00;;;;;;10367447;28;20197;-82
2022/05/19 23:50:39;;;;;;;14.43;8.20;;;17.40;1.00;;;;;;10367653;28;20193;-82
2022/05/19 23:56:00;;;;;;;10.35;7.13;;;17.30;1.00;;;;;;10394434;28;20284;-81
